createdAt,value
2023-04-22T00:00:48.789Z,7.20
2023-04-22T00:03:36.560Z,7.20
2023-04-22T00:06:24.338Z,7.20
2023-04-22T00:09:12.059Z,7.10
2023-04-22T00:11:59.684Z,7.00
2023-04-22T00:14:47.096Z,7.10
2023-04-22T00:17:34.704Z,7.10
2023-04-22T00:20:22.724Z,7.00
2023-04-22T00:23:13.103Z,7.00
2023-04-22T00:26:02.169Z,6.90
2023-04-22T00:28:49.667Z,7.00
2023-04-22T00:31:37.242Z,6.90
2023-04-22T00:34:24.752Z,6.90
2023-04-22T00:37:12.486Z,6.90
2023-04-22T00:40:00.018Z,6.80
2023-04-22T00:42:51.066Z,6.80
2023-04-22T00:45:40.111Z,6.80
2023-04-22T00:48:28.973Z,6.70
2023-04-22T00:51:16.685Z,6.70
2023-04-22T00:54:06.095Z,6.70
2023-04-22T00:56:53.719Z,6.70
2023-04-22T00:59:42.695Z,6.70
2023-04-22T01:02:30.706Z,6.70
2023-04-22T01:05:18.513Z,6.70
2023-04-22T01:08:05.936Z,6.70
2023-04-22T01:10:54.197Z,6.60
2023-04-22T01:13:42.632Z,6.60
2023-04-22T01:16:34.316Z,6.50
2023-04-22T01:19:22.661Z,6.50
2023-04-22T01:22:14.302Z,6.50
2023-04-22T01:25:04.030Z,6.50
2023-04-22T01:27:51.888Z,6.50
2023-04-22T01:30:40.906Z,6.40
2023-04-22T01:33:28.790Z,6.40
2023-04-22T01:36:17.727Z,6.40
2023-04-22T01:39:05.341Z,6.40
2023-04-22T01:41:53.681Z,6.40
2023-04-22T01:44:41.966Z,6.30
2023-04-22T01:47:30.004Z,6.30
2023-04-22T01:50:17.955Z,6.30
2023-04-22T01:53:08.823Z,6.20
2023-04-22T01:55:56.501Z,6.10
2023-04-22T01:58:44.464Z,6.10
2023-04-22T02:01:31.920Z,6.00
2023-04-22T02:04:19.950Z,6.00
2023-04-22T02:07:07.443Z,5.90
2023-04-22T02:09:55.082Z,5.90
2023-04-22T02:12:42.518Z,5.90
2023-04-22T02:15:30.666Z,5.90
2023-04-22T02:18:19.671Z,6.00
2023-04-22T02:21:07.132Z,5.90
2023-04-22T02:23:54.603Z,5.90
2023-04-22T02:26:43.555Z,5.90
2023-04-22T02:29:32.298Z,5.90
2023-04-22T02:32:19.833Z,5.80
2023-04-22T02:35:08.029Z,5.80
2023-04-22T02:37:55.671Z,5.80
2023-04-22T02:40:43.225Z,5.80
2023-04-22T02:43:30.707Z,5.80
2023-04-22T02:46:18.197Z,5.70
2023-04-22T02:49:05.888Z,5.70
2023-04-22T02:51:53.374Z,5.60
2023-04-22T02:54:40.893Z,5.60
2023-04-22T02:57:28.400Z,5.50
2023-04-22T03:00:16.076Z,5.50
2023-04-22T03:03:03.749Z,5.50
2023-04-22T03:05:51.380Z,5.50
2023-04-22T03:08:38.797Z,5.40
2023-04-22T03:11:26.733Z,5.40
2023-04-22T03:14:14.177Z,5.40
2023-04-22T03:17:01.764Z,5.40
2023-04-22T03:19:49.353Z,5.30
2023-04-22T03:22:36.810Z,5.30
2023-04-22T03:25:24.303Z,5.30
2023-04-22T03:28:11.859Z,5.30
2023-04-22T03:30:59.325Z,5.30
2023-04-22T03:33:46.772Z,5.30
2023-04-22T03:36:34.260Z,5.40
2023-04-22T03:39:21.922Z,5.40
2023-04-22T03:42:11.211Z,5.40
2023-04-22T03:44:58.875Z,5.30
2023-04-22T03:47:46.390Z,5.40
2023-04-22T03:50:34.305Z,5.40
2023-04-22T03:53:21.853Z,5.40
2023-04-22T03:56:09.290Z,5.30
2023-04-22T03:58:56.704Z,5.30
2023-04-22T04:01:46.595Z,5.20
2023-04-22T04:04:35.188Z,5.30
2023-04-22T04:07:23.014Z,5.30
2023-04-22T04:10:12.020Z,5.40
2023-04-22T04:12:59.453Z,5.50
2023-04-22T04:15:47.455Z,5.60
2023-04-22T04:18:34.949Z,5.60
2023-04-22T04:21:22.425Z,5.60
2023-04-22T04:24:09.811Z,5.60
2023-04-22T04:26:58.244Z,5.70
2023-04-22T04:29:45.739Z,5.70
2023-04-22T04:32:34.524Z,5.80
2023-04-22T04:35:22.109Z,5.90
2023-04-22T04:38:09.613Z,5.90
2023-04-22T04:40:57.109Z,6.00
2023-04-22T04:43:46.628Z,6.20
2023-04-22T04:46:34.865Z,6.40
2023-04-22T04:49:22.952Z,6.60
2023-04-22T04:52:11.974Z,6.90
2023-04-22T04:54:59.605Z,7.30
2023-04-22T04:57:47.655Z,7.80
2023-04-22T05:00:35.135Z,8.50
2023-04-22T05:03:22.756Z,9.30
2023-04-22T05:06:10.765Z,9.90
2023-04-22T05:08:58.737Z,10.30
2023-04-22T05:11:46.157Z,10.40
2023-04-22T05:14:33.667Z,10.60
2023-04-22T05:17:21.840Z,11.00
2023-04-22T05:20:09.915Z,11.40
2023-04-22T05:22:57.406Z,11.60
2023-04-22T05:25:45.064Z,11.70
2023-04-22T05:28:32.477Z,12.20
2023-04-22T05:31:20.025Z,12.60
2023-04-22T05:34:07.779Z,13.10
2023-04-22T05:36:55.768Z,13.50
2023-04-22T05:39:43.198Z,13.90
2023-04-22T05:42:30.665Z,14.10
2023-04-22T05:45:18.342Z,14.20
2023-04-22T05:48:05.997Z,14.30
2023-04-22T05:50:54.540Z,14.10
2023-04-22T05:53:45.101Z,14.10
2023-04-22T05:56:32.757Z,13.90
2023-04-22T05:59:21.663Z,13.60
2023-04-22T06:02:09.466Z,13.20
2023-04-22T06:04:57.333Z,13.00
2023-04-22T06:07:45.357Z,12.70
2023-04-22T06:10:32.871Z,12.70
2023-04-22T06:13:20.332Z,12.60
2023-04-22T06:18:56.458Z,12.70
2023-04-22T06:21:43.979Z,13.00
2023-04-22T06:24:31.509Z,13.20
2023-04-22T06:27:19.032Z,13.40
2023-04-22T06:30:07.687Z,13.50
2023-04-22T06:32:56.536Z,13.70
2023-04-22T06:35:44.333Z,13.80
2023-04-22T06:38:31.928Z,14.00
2023-04-22T06:41:19.568Z,14.00
2023-04-22T06:44:07.004Z,14.10
2023-04-22T06:46:55.877Z,14.20
2023-04-22T06:49:45.640Z,14.30
2023-04-22T06:52:33.196Z,14.20
2023-04-22T06:55:21.036Z,14.40
2023-04-22T06:58:09.230Z,14.50
2023-04-22T07:00:56.672Z,14.60
2023-04-22T07:03:44.328Z,14.60
2023-04-22T07:06:31.781Z,14.60
2023-04-22T07:09:19.270Z,14.80
2023-04-22T07:12:06.880Z,14.90
2023-04-22T07:14:54.424Z,15.10
2023-04-22T07:17:42.811Z,15.10
2023-04-22T07:20:30.400Z,15.30
2023-04-22T07:23:18.688Z,15.20
2023-04-22T07:26:06.281Z,15.40
2023-04-22T07:28:53.786Z,15.60
2023-04-22T07:31:41.622Z,15.70
2023-04-22T07:34:29.120Z,15.70
2023-04-22T07:37:16.637Z,15.80
2023-04-22T07:40:04.542Z,15.70
2023-04-22T07:42:52.067Z,15.80
2023-04-22T07:45:39.776Z,15.70
2023-04-22T07:48:27.363Z,15.70
2023-04-22T07:51:15.106Z,15.80
2023-04-22T07:54:02.578Z,15.80
2023-04-22T07:56:50.051Z,15.80
2023-04-22T07:59:37.613Z,16.00
2023-04-22T08:02:25.584Z,16.20
2023-04-22T08:05:13.331Z,16.10
2023-04-22T08:08:00.929Z,16.10
2023-04-22T08:10:48.476Z,15.90
2023-04-22T08:13:35.973Z,16.00
2023-04-22T08:16:23.608Z,16.10
2023-04-22T08:19:11.884Z,16.20
2023-04-22T08:21:59.336Z,16.20
2023-04-22T08:24:46.799Z,16.40
2023-04-22T08:27:34.341Z,16.50
2023-04-22T08:30:22.014Z,16.60
2023-04-22T08:33:09.560Z,16.80
2023-04-22T08:35:57.221Z,17.00
2023-04-22T08:38:44.777Z,17.10
2023-04-22T08:41:36.275Z,17.30
2023-04-22T08:44:24.272Z,17.50
2023-04-22T08:47:15.012Z,17.70
2023-04-22T08:50:04.419Z,17.80
2023-04-22T08:52:51.999Z,18.10
2023-04-22T08:55:43.690Z,18.10
2023-04-22T08:58:34.194Z,18.20
2023-04-22T09:01:23.562Z,18.40
2023-04-22T09:04:14.778Z,18.40
2023-04-22T09:07:03.495Z,18.50
2023-04-22T09:09:51.914Z,18.50
2023-04-22T09:12:41.059Z,18.50
2023-04-22T09:15:30.404Z,18.60
2023-04-22T09:18:19.520Z,18.60
2023-04-22T09:21:07.158Z,18.60
2023-04-22T09:23:56.954Z,18.60
2023-04-22T09:26:44.510Z,18.80
2023-04-22T09:29:32.094Z,18.80
2023-04-22T09:32:20.088Z,18.80
2023-04-22T09:35:08.243Z,19.00
2023-04-22T09:37:57.049Z,19.00
2023-04-22T09:40:44.908Z,19.20
2023-04-22T09:43:33.381Z,19.40
2023-04-22T09:46:24.470Z,19.40
2023-04-22T09:49:12.236Z,19.60
2023-04-22T09:51:59.754Z,19.60
2023-04-22T09:54:54.568Z,19.70
2023-04-22T09:57:43.593Z,19.90
2023-04-22T10:00:31.939Z,20.10
2023-04-22T10:03:19.798Z,20.30
2023-04-22T10:06:07.930Z,20.30
2023-04-22T10:08:55.775Z,20.20
2023-04-22T10:11:43.828Z,20.30
2023-04-22T10:14:31.336Z,20.50
2023-04-22T10:17:20.312Z,20.40
2023-04-22T10:20:17.394Z,20.30
2023-04-22T10:23:20.320Z,20.30
2023-04-22T10:26:07.787Z,20.60
2023-04-22T10:28:58.232Z,20.60
2023-04-22T10:32:17.990Z,20.50
2023-04-22T10:35:12.634Z,20.60
2023-04-22T10:38:00.220Z,20.40
2023-04-22T10:41:00.656Z,20.60
2023-04-22T10:43:58.373Z,20.60
2023-04-22T10:46:54.836Z,20.50
2023-04-22T10:49:44.461Z,20.60
2023-04-22T10:52:32.452Z,20.80
2023-04-22T10:55:20.254Z,20.70
2023-04-22T10:58:24.605Z,20.70
2023-04-22T11:01:16.100Z,20.70
2023-04-22T11:04:23.627Z,20.90
2023-04-22T11:07:26.988Z,21.00
2023-04-22T11:10:35.708Z,21.00
2023-04-22T11:13:23.505Z,21.10
2023-04-22T11:16:11.593Z,21.10
2023-04-22T11:18:59.840Z,21.20
2023-04-22T11:21:48.970Z,21.20
2023-04-22T11:24:37.638Z,21.20
2023-04-22T11:27:26.966Z,21.10
2023-04-22T11:30:23.974Z,21.00
2023-04-22T11:33:16.474Z,21.10
2023-04-22T11:36:04.429Z,21.40
2023-04-22T11:38:56.631Z,21.40
2023-04-22T11:41:44.202Z,21.40
2023-04-22T11:44:31.629Z,21.50
2023-04-22T11:47:19.723Z,21.70
2023-04-22T11:50:12.322Z,21.80
2023-04-22T11:53:19.906Z,21.90
2023-04-22T11:56:07.510Z,22.00
2023-04-22T11:58:55.116Z,22.20
2023-04-22T12:01:44.757Z,22.30
2023-04-22T12:04:42.421Z,22.30
2023-04-22T12:07:30.168Z,22.40
2023-04-22T12:10:17.742Z,22.20
2023-04-22T12:13:05.150Z,22.20
2023-04-22T12:16:02.937Z,22.10
2023-04-22T12:18:56.312Z,22.10
2023-04-22T12:21:43.972Z,22.10
2023-04-22T12:24:31.481Z,22.20
2023-04-22T12:27:19.016Z,22.30
2023-04-22T12:30:07.475Z,22.30
2023-04-22T12:32:55.120Z,22.30
2023-04-22T12:35:42.664Z,22.20
2023-04-22T12:38:30.436Z,22.30
2023-04-22T12:41:17.926Z,22.50
2023-04-22T12:44:05.644Z,22.60
2023-04-22T12:46:53.364Z,22.90
2023-04-22T12:49:41.435Z,23.00
2023-04-22T12:52:29.419Z,23.00
2023-04-22T12:55:18.236Z,22.70
2023-04-22T12:58:05.906Z,22.60
2023-04-22T13:00:53.463Z,22.70
2023-04-22T13:03:40.972Z,22.60
2023-04-22T13:06:29.249Z,22.50
2023-04-22T13:09:17.415Z,22.70
2023-04-22T13:12:05.238Z,22.80
2023-04-22T13:14:52.731Z,22.80
2023-04-22T13:17:40.769Z,22.70
2023-04-22T13:20:28.282Z,22.50
2023-04-22T13:23:17.166Z,22.60
2023-04-22T13:26:05.048Z,22.80
2023-04-22T13:28:52.637Z,22.70
2023-04-22T13:31:44.507Z,22.50
2023-04-22T13:34:32.055Z,22.60
2023-04-22T13:37:21.749Z,22.50
2023-04-22T13:40:09.950Z,22.30
2023-04-22T13:42:57.591Z,22.30
2023-04-22T13:45:45.710Z,22.30
2023-04-22T13:48:33.243Z,22.50
2023-04-22T13:51:20.867Z,22.60
2023-04-22T13:54:08.485Z,22.70
2023-04-22T13:56:55.940Z,22.70
2023-04-22T13:59:43.424Z,22.80
2023-04-22T14:02:30.992Z,22.80
2023-04-22T14:05:18.686Z,22.80
2023-04-22T14:08:06.512Z,22.90
2023-04-22T14:10:55.060Z,22.90
2023-04-22T14:13:42.693Z,22.90
2023-04-22T14:16:30.177Z,22.90
2023-04-22T14:19:17.788Z,22.80
2023-04-22T14:22:05.700Z,22.80
2023-04-22T14:24:53.284Z,22.80
2023-04-22T14:27:40.778Z,22.80
2023-04-22T14:30:28.342Z,22.80
2023-04-22T14:33:15.946Z,22.90
2023-04-22T14:36:03.698Z,22.90
2023-04-22T14:38:51.257Z,23.00
2023-04-22T14:41:39.083Z,23.10
2023-04-22T14:44:26.977Z,23.00
2023-04-22T14:47:14.464Z,23.00
2023-04-22T14:50:02.626Z,23.10
2023-04-22T14:52:51.702Z,23.20
2023-04-22T14:55:39.312Z,23.20
2023-04-22T14:58:31.311Z,23.10
2023-04-22T15:01:20.819Z,23.20
2023-04-22T15:04:08.414Z,23.20
2023-04-22T15:06:57.730Z,23.20
2023-04-22T15:09:45.201Z,23.30
2023-04-22T15:12:32.705Z,23.40
2023-04-22T15:15:21.448Z,23.20
2023-04-22T15:18:09.181Z,22.80
2023-04-22T15:20:56.644Z,22.70
2023-04-22T15:23:44.251Z,22.60
2023-04-22T15:26:32.605Z,22.50
2023-04-22T15:29:21.199Z,22.50
2023-04-22T15:32:08.658Z,22.50
2023-04-22T15:34:56.190Z,22.60
2023-04-22T15:37:45.925Z,22.60
2023-04-22T15:40:33.545Z,22.70
2023-04-22T15:43:21.150Z,22.60
2023-04-22T15:46:09.872Z,22.60
2023-04-22T15:48:57.678Z,22.50
2023-04-22T15:51:45.330Z,22.60
2023-04-22T15:54:32.943Z,22.70
2023-04-22T15:57:20.496Z,22.60
2023-04-22T16:00:13.686Z,22.50
2023-04-22T16:03:02.994Z,22.40
2023-04-22T16:05:50.599Z,22.20
2023-04-22T16:08:41.173Z,22.10
2023-04-22T16:11:30.323Z,22.00
2023-04-22T16:14:18.069Z,22.00
2023-04-22T16:17:06.649Z,21.90
2023-04-22T16:19:55.422Z,21.70
2023-04-22T16:22:42.819Z,21.50
2023-04-22T16:25:30.413Z,21.40
2023-04-22T16:28:18.052Z,21.20
2023-04-22T16:31:05.606Z,21.20
2023-04-22T16:33:53.198Z,21.10
2023-04-22T16:36:41.578Z,21.00
2023-04-22T16:39:30.447Z,21.10
2023-04-22T16:42:18.121Z,21.20
2023-04-22T16:45:06.750Z,21.10
2023-04-22T16:47:54.228Z,21.10
2023-04-22T16:50:41.797Z,21.10
2023-04-22T16:53:30.008Z,21.20
2023-04-22T16:56:17.399Z,21.20
2023-04-22T16:59:05.002Z,21.10
2023-04-22T17:01:52.499Z,21.00
2023-04-22T17:04:40.018Z,20.90
2023-04-22T17:07:27.461Z,20.70
2023-04-22T17:10:14.935Z,20.60
2023-04-22T17:13:03.123Z,20.40
2023-04-22T17:15:50.778Z,20.40
2023-04-22T17:18:38.573Z,20.20
2023-04-22T17:21:27.142Z,20.10
2023-04-22T17:24:14.651Z,19.90
2023-04-22T17:27:03.023Z,19.80
2023-04-22T17:29:50.666Z,19.60
2023-04-22T17:32:38.244Z,19.50
2023-04-22T17:35:25.963Z,19.30
2023-04-22T17:38:14.175Z,19.10
2023-04-22T17:41:01.741Z,19.00
2023-04-22T17:43:49.210Z,18.80
2023-04-22T17:46:36.805Z,18.70
2023-04-22T17:49:24.409Z,18.60
2023-04-22T17:52:12.032Z,18.50
2023-04-22T17:55:00.012Z,18.30
2023-04-22T17:57:47.631Z,18.00
2023-04-22T18:00:37.678Z,17.80
2023-04-22T18:03:26.372Z,17.50
2023-04-22T18:06:14.051Z,17.20
2023-04-22T18:09:01.651Z,16.90
2023-04-22T18:11:49.259Z,16.70
2023-04-22T18:14:36.861Z,16.50
2023-04-22T18:17:24.611Z,16.30
2023-04-22T18:20:18.560Z,16.00
2023-04-22T18:23:06.685Z,15.80
2023-04-22T18:25:54.572Z,15.50
2023-04-22T18:28:43.589Z,15.40
2023-04-22T18:31:31.138Z,15.30
2023-04-22T18:34:18.648Z,15.20
2023-04-22T18:37:06.082Z,15.10
2023-04-22T18:39:53.513Z,14.90
2023-04-22T18:42:44.734Z,14.80
2023-04-22T18:45:32.463Z,14.70
2023-04-22T18:48:20.500Z,14.60
2023-04-22T18:51:08.387Z,14.50
2023-04-22T18:53:56.492Z,14.40
2023-04-22T18:56:43.981Z,14.30
2023-04-22T18:59:31.511Z,14.20
2023-04-22T19:02:19.205Z,14.00
2023-04-22T19:05:07.037Z,13.90
2023-04-22T19:07:54.801Z,13.80
2023-04-22T19:10:42.277Z,13.70
2023-04-22T19:13:30.375Z,13.50
2023-04-22T19:16:18.165Z,13.30
2023-04-22T19:19:06.351Z,13.20
2023-04-22T19:21:53.911Z,13.10
2023-04-22T19:24:41.662Z,13.00
2023-04-22T19:27:29.217Z,12.90
2023-04-22T19:30:16.759Z,12.80
2023-04-22T19:33:04.400Z,12.70
2023-04-22T19:35:51.885Z,12.60
2023-04-22T19:38:39.417Z,12.50
2023-04-22T19:41:26.981Z,12.40
2023-04-22T19:44:14.493Z,12.20
2023-04-22T19:47:02.061Z,12.30
2023-04-22T19:49:50.179Z,12.20
2023-04-22T19:52:40.454Z,12.20
2023-04-22T19:55:28.352Z,12.10
2023-04-22T19:58:17.204Z,12.10
2023-04-22T20:01:04.944Z,12.00
2023-04-22T20:03:53.734Z,12.00
2023-04-22T20:06:47.553Z,12.00
2023-04-22T20:09:36.765Z,12.00
2023-04-22T20:12:28.730Z,12.00
2023-04-22T20:15:16.797Z,11.90
2023-04-22T20:18:04.573Z,11.80
2023-04-22T20:20:57.447Z,11.80
2023-04-22T20:23:46.987Z,11.70
2023-04-22T20:26:34.591Z,11.70
2023-04-22T20:29:23.387Z,11.70
2023-04-22T20:32:11.421Z,11.60
2023-04-22T20:34:59.672Z,11.60
2023-04-22T20:37:48.646Z,11.60
2023-04-22T20:40:36.639Z,11.50
2023-04-22T20:43:24.220Z,11.50
2023-04-22T20:46:11.646Z,11.50
2023-04-22T20:48:59.452Z,11.50
2023-04-22T20:51:47.088Z,11.50
2023-04-22T20:54:36.254Z,11.40
2023-04-22T20:57:23.840Z,11.40
2023-04-22T21:00:12.230Z,11.40
2023-04-22T21:03:00.981Z,11.40
2023-04-22T21:05:48.981Z,11.40
2023-04-22T21:08:39.451Z,11.40
2023-04-22T21:11:28.774Z,11.40
2023-04-22T21:14:18.560Z,11.40
2023-04-22T21:17:23.123Z,11.40
2023-04-22T21:20:12.330Z,11.40
2023-04-22T21:23:01.857Z,11.30
2023-04-22T21:25:51.999Z,11.30
2023-04-22T21:28:41.653Z,11.30
2023-04-22T21:31:29.526Z,11.30
2023-04-22T21:34:16.938Z,11.30
2023-04-22T21:37:07.122Z,11.30
2023-04-22T21:39:55.593Z,11.20
2023-04-22T21:42:43.061Z,11.20
2023-04-22T21:45:31.310Z,11.20
2023-04-22T21:48:18.762Z,11.20
2023-04-22T21:51:06.382Z,11.20
2023-04-22T21:53:53.920Z,11.20
2023-04-22T21:56:41.581Z,11.20
2023-04-22T21:59:29.044Z,11.30
2023-04-22T22:02:16.719Z,11.20
2023-04-22T22:05:05.056Z,11.20
2023-04-22T22:07:53.109Z,11.30
2023-04-22T22:10:43.279Z,11.30
2023-04-22T22:13:31.028Z,11.30
2023-04-22T22:16:19.336Z,11.30
2023-04-22T22:19:06.941Z,11.30
2023-04-22T22:21:54.416Z,11.30
2023-04-22T22:24:42.189Z,11.20
2023-04-22T22:27:29.910Z,11.20
2023-04-22T22:30:21.538Z,11.10
2023-04-22T22:33:09.071Z,11.10
2023-04-22T22:35:57.063Z,11.00
2023-04-22T22:38:44.570Z,10.90
2023-04-22T22:41:32.001Z,10.70
2023-04-22T22:44:19.407Z,10.60
2023-04-22T22:47:06.983Z,10.60
2023-04-22T22:49:54.461Z,10.50
2023-04-22T22:52:42.064Z,10.40
2023-04-22T22:55:29.492Z,10.40
2023-04-22T22:58:16.982Z,10.30
2023-04-22T23:01:05.214Z,10.30
2023-04-22T23:03:52.995Z,10.30
2023-04-22T23:06:40.699Z,10.30
2023-04-22T23:09:28.601Z,10.20
2023-04-22T23:12:16.086Z,10.20
2023-04-22T23:15:04.627Z,10.10
2023-04-22T23:17:52.490Z,10.00
2023-04-22T23:20:41.845Z,9.90
2023-04-22T23:23:30.965Z,9.90
2023-04-22T23:26:19.147Z,9.80
2023-04-22T23:29:07.983Z,9.70
2023-04-22T23:31:57.162Z,9.60
2023-04-22T23:34:49.992Z,9.60
2023-04-22T23:37:38.484Z,9.60
2023-04-22T23:40:25.983Z,9.50
2023-04-22T23:43:13.497Z,9.50
2023-04-22T23:46:03.587Z,9.40
2023-04-22T23:48:51.435Z,9.40
2023-04-22T23:51:38.995Z,9.40
2023-04-22T23:54:27.734Z,9.30
2023-04-22T23:57:16.536Z,9.30
